Terminal Aerodrome Forecast
Issued by NWS Blacksburg, VA

Home | Current Version | Previous Version | Text Only | Print | Product List | Glossary On
Versions: 1 2 3 4 5 6 7 8 9 10 11 12 13 14 15 16 17 18 19 20
000
FTUS41 KRNK 230532
TAFROA
TAF
KROA 230532Z 2306/2406 00000KT P6SM SCT120
     FM230900 29006KT P6SM SCT015 BKN060
      TEMPO 2310/2312 4SM BR
     FM231500 31008KT P6SM SCT050=

USA.gov is the U.S. government's official web portal to all federal, state and local government web resources and services.